createdAt,value
2023-04-06T00:00:35.946Z,2.03
2023-04-06T00:01:38.826Z,1.90
2023-04-06T00:02:40.731Z,1.70
2023-04-06T00:03:43.731Z,1.70
2023-04-06T00:04:45.753Z,1.80
2023-04-06T00:05:49.394Z,1.73
2023-04-06T00:06:51.210Z,1.93
2023-04-06T00:07:55.247Z,1.90
2023-04-06T00:08:57.304Z,1.30
2023-04-06T00:10:00.187Z,1.97
2023-04-06T00:11:02.011Z,1.93
2023-04-06T00:12:06.627Z,1.83
2023-04-06T00:13:08.545Z,1.70
2023-04-06T00:14:11.365Z,1.50
2023-04-06T00:15:13.174Z,1.70
2023-04-06T00:16:16.056Z,1.63
2023-04-06T00:17:17.864Z,1.90
2023-04-06T00:18:20.779Z,1.97
2023-04-06T00:19:22.857Z,1.77
2023-04-06T00:20:25.700Z,1.87
2023-04-06T00:21:27.737Z,1.80
2023-04-06T00:22:30.770Z,2.07
2023-04-06T00:23:32.617Z,2.20
2023-04-06T00:24:35.413Z,1.90
2023-04-06T00:25:37.268Z,1.60
2023-04-06T00:26:40.095Z,2.17
2023-04-06T00:27:43.247Z,1.93
2023-04-06T00:28:46.329Z,2.03
2023-04-06T00:29:48.191Z,1.67
2023-04-06T00:30:51.246Z,1.90
2023-04-06T00:31:53.223Z,1.80
2023-04-06T00:32:56.143Z,2.00
2023-04-06T00:33:59.110Z,2.07
2023-04-06T00:35:01.945Z,1.90
2023-04-06T00:36:04.168Z,2.07
2023-04-06T00:37:07.041Z,1.90
2023-04-06T00:38:08.925Z,1.50
2023-04-06T00:39:12.103Z,2.10
2023-04-06T00:40:14.130Z,1.90
2023-04-06T00:41:16.943Z,2.03
2023-04-06T00:42:26.117Z,2.00
2023-04-06T00:43:30.345Z,1.67
2023-04-06T00:44:32.972Z,1.80
2023-04-06T00:45:36.976Z,2.13
2023-04-06T00:46:38.783Z,1.60
2023-04-06T00:47:41.744Z,1.90
2023-04-06T00:48:43.667Z,1.63
2023-04-06T00:49:46.475Z,1.67
2023-04-06T00:50:48.301Z,1.80
2023-04-06T00:51:51.222Z,1.80
2023-04-06T00:52:53.023Z,1.90
2023-04-06T00:53:55.913Z,2.00
2023-04-06T00:54:57.717Z,1.77
2023-04-06T00:56:00.527Z,1.70
2023-04-06T00:57:02.357Z,1.83
2023-04-06T00:58:06.624Z,2.20
2023-04-06T00:59:10.178Z,1.90
2023-04-06T01:00:14.514Z,1.77
2023-04-06T01:01:16.433Z,1.97
2023-04-06T01:02:19.435Z,1.90
2023-04-06T01:03:21.448Z,1.80
2023-04-06T01:04:24.585Z,1.80
2023-04-06T01:05:26.441Z,1.67
2023-04-06T01:06:29.284Z,2.30
2023-04-06T01:07:31.343Z,2.27
2023-04-06T01:08:34.261Z,1.83
2023-04-06T01:09:36.249Z,1.80
2023-04-06T01:10:39.051Z,1.73
2023-04-06T01:11:40.835Z,1.70
2023-04-06T01:12:43.683Z,1.90
2023-04-06T01:13:45.512Z,1.83
2023-04-06T01:14:49.841Z,2.37
2023-04-06T01:15:51.777Z,1.90
2023-04-06T01:16:54.905Z,1.63
2023-04-06T01:17:56.766Z,2.00
2023-04-06T01:18:59.582Z,2.07
2023-04-06T01:20:01.433Z,2.03
2023-04-06T01:21:04.479Z,1.87
2023-04-06T01:22:06.346Z,1.90
2023-04-06T01:23:10.658Z,1.83
2023-04-06T01:24:12.515Z,1.60
2023-04-06T01:25:15.517Z,1.73
2023-04-06T01:26:17.406Z,2.10
2023-04-06T01:27:20.160Z,1.47
2023-04-06T01:28:22.050Z,1.90
2023-04-06T01:29:25.074Z,1.93
2023-04-06T01:30:27.464Z,1.70
2023-04-06T01:31:30.534Z,1.90
2023-04-06T01:32:32.492Z,1.73
2023-04-06T01:33:35.597Z,1.67
2023-04-06T01:34:37.441Z,1.73
2023-04-06T01:35:40.574Z,1.60
2023-04-06T01:36:42.470Z,1.80
2023-04-06T01:37:45.663Z,2.23
2023-04-06T01:38:48.869Z,1.73
2023-04-06T01:39:52.631Z,1.60
2023-04-06T01:40:54.655Z,1.67
2023-04-06T01:41:57.447Z,1.73
2023-04-06T01:42:59.279Z,1.67
2023-04-06T01:44:02.250Z,1.83
2023-04-06T01:45:04.762Z,1.70
2023-04-06T01:46:07.594Z,2.07
2023-04-06T01:47:09.449Z,1.80
2023-04-06T01:48:12.291Z,1.67
2023-04-06T01:49:14.340Z,1.60
2023-04-06T01:50:17.362Z,2.17
2023-04-06T01:51:19.297Z,1.53
2023-04-06T01:52:22.217Z,1.43
2023-04-06T01:53:24.049Z,2.27
2023-04-06T01:54:28.288Z,1.77
2023-04-06T01:55:30.106Z,1.93
2023-04-06T01:56:33.015Z,1.83
2023-04-06T01:57:36.109Z,1.67
2023-04-06T01:58:39.107Z,1.63
2023-04-06T01:59:41.054Z,2.00
2023-04-06T02:00:44.070Z,2.07
2023-04-06T02:01:46.318Z,1.60
2023-04-06T02:02:49.316Z,1.53
2023-04-06T02:03:51.217Z,1.43
2023-04-06T02:04:54.016Z,1.43
2023-04-06T02:05:56.063Z,1.90
2023-04-06T02:06:58.962Z,1.60
2023-04-06T02:08:00.851Z,1.60
2023-04-06T02:09:03.786Z,1.53
2023-04-06T02:10:12.422Z,1.80
2023-04-06T02:11:15.301Z,1.43
2023-04-06T02:12:17.158Z,1.47
2023-04-06T02:13:19.986Z,1.37
2023-04-06T02:14:21.854Z,1.63
2023-04-06T02:15:24.743Z,1.53
2023-04-06T02:16:26.749Z,1.93
2023-04-06T02:17:29.733Z,1.70
2023-04-06T02:18:33.321Z,1.90
2023-04-06T02:19:35.090Z,2.03
2023-04-06T02:20:37.935Z,1.57
2023-04-06T02:21:39.777Z,1.90
2023-04-06T02:22:42.684Z,1.87
2023-04-06T02:23:44.507Z,1.70
2023-04-06T02:24:47.667Z,1.70
2023-04-06T02:25:51.218Z,1.43
2023-04-06T02:26:54.023Z,2.17
2023-04-06T02:27:56.268Z,1.80
2023-04-06T02:28:59.066Z,1.50
2023-04-06T02:30:01.003Z,1.90
2023-04-06T02:31:04.018Z,1.60
2023-04-06T02:32:06.103Z,1.63
2023-04-06T02:33:08.970Z,1.70
2023-04-06T02:34:13.048Z,1.27
2023-04-06T02:35:15.898Z,1.83
2023-04-06T02:36:17.677Z,1.60
2023-04-06T02:37:20.571Z,2.00
2023-04-06T02:38:22.373Z,1.83
2023-04-06T02:39:25.229Z,1.70
2023-04-06T02:40:27.159Z,1.60
2023-04-06T02:41:31.389Z,1.70
2023-04-06T02:42:33.873Z,1.80
2023-04-06T02:43:36.701Z,1.87
2023-04-06T02:44:38.568Z,1.60
2023-04-06T02:45:41.749Z,1.60
2023-04-06T02:46:43.687Z,1.70
2023-04-06T02:47:47.027Z,1.77
2023-04-06T02:48:48.948Z,1.63
2023-04-06T02:49:51.733Z,1.77
2023-04-06T02:50:53.655Z,1.90
2023-04-06T02:51:56.493Z,1.70
2023-04-06T02:52:58.580Z,1.57
2023-04-06T02:54:01.373Z,2.00
2023-04-06T02:55:03.250Z,1.60
2023-04-06T02:56:06.576Z,2.03
2023-04-06T02:57:09.988Z,1.70
2023-04-06T02:58:12.851Z,1.60
2023-04-06T02:59:14.801Z,1.57
2023-04-06T03:00:18.038Z,1.70
2023-04-06T03:01:19.863Z,1.80
2023-04-06T03:02:22.801Z,1.97
2023-04-06T03:03:24.752Z,1.60
2023-04-06T03:04:27.658Z,1.73
2023-04-06T03:05:29.436Z,1.63
2023-04-06T03:06:32.418Z,1.60
2023-04-06T03:07:34.386Z,2.07
2023-04-06T03:08:37.465Z,1.67
2023-04-06T03:09:39.433Z,1.93
2023-04-06T03:10:42.263Z,2.10
2023-04-06T03:11:44.118Z,1.50
2023-04-06T03:12:48.410Z,1.73
2023-04-06T03:13:50.296Z,1.70
2023-04-06T03:14:53.141Z,1.63
2023-04-06T03:15:55.171Z,1.80
2023-04-06T03:16:58.054Z,2.07
2023-04-06T03:18:00.571Z,2.40
2023-04-06T03:19:03.661Z,3.13
2023-04-06T03:20:06.333Z,2.37
2023-04-06T03:21:09.258Z,2.00
2023-04-06T03:22:11.269Z,2.23
2023-04-06T03:23:14.106Z,1.87
2023-04-06T03:24:15.984Z,2.10
2023-04-06T03:25:18.786Z,2.40
2023-04-06T03:26:20.760Z,1.90
2023-04-06T03:27:23.526Z,2.20
2023-04-06T03:28:26.754Z,2.37
2023-04-06T03:29:29.575Z,1.80
2023-04-06T03:30:31.418Z,2.00
2023-04-06T03:31:34.312Z,2.10
2023-04-06T03:32:36.289Z,2.10
2023-04-06T03:33:39.139Z,1.97
2023-04-06T03:34:40.969Z,1.80
2023-04-06T03:35:43.881Z,1.50
2023-04-06T03:36:48.422Z,1.90
2023-04-06T03:37:56.251Z,1.80
2023-04-06T03:38:59.223Z,1.83
2023-04-06T03:40:01.286Z,1.90
2023-04-06T03:41:04.140Z,1.83
2023-04-06T03:42:06.192Z,1.70
2023-04-06T03:43:09.094Z,1.83
2023-04-06T03:44:12.343Z,1.60
2023-04-06T03:45:15.500Z,1.90
2023-04-06T03:46:17.361Z,1.77
2023-04-06T03:47:20.502Z,2.10
2023-04-06T03:48:22.343Z,1.60
2023-04-06T03:49:25.206Z,1.90
2023-04-06T03:50:27.387Z,1.40
2023-04-06T03:51:30.390Z,1.50
2023-04-06T03:52:32.496Z,1.93
2023-04-06T03:53:35.268Z,2.10
2023-04-06T03:54:37.352Z,1.60
2023-04-06T03:55:40.719Z,1.70
2023-04-06T03:56:42.592Z,1.30
2023-04-06T03:57:45.456Z,1.97
2023-04-06T03:58:50.419Z,1.77
2023-04-06T03:59:54.651Z,1.70
2023-04-06T04:00:56.494Z,1.70
2023-04-06T04:01:59.371Z,2.13
2023-04-06T04:03:02.758Z,1.93
2023-04-06T04:04:05.736Z,1.87
2023-04-06T04:05:08.188Z,1.70
2023-04-06T04:06:11.052Z,1.90
2023-04-06T04:07:12.861Z,2.23
2023-04-06T04:08:15.900Z,2.17
2023-04-06T04:09:17.715Z,1.97
2023-04-06T04:10:20.666Z,2.30
2023-04-06T04:11:22.500Z,2.07
2023-04-06T04:12:25.371Z,1.90
2023-04-06T04:13:27.187Z,1.70
2023-04-06T04:14:30.054Z,2.17
2023-04-06T04:15:33.427Z,2.10
2023-04-06T04:16:36.295Z,1.60
2023-04-06T04:17:38.152Z,1.77
2023-04-06T04:18:41.045Z,1.73
2023-04-06T04:19:42.922Z,2.03
2023-04-06T04:20:45.881Z,1.80
2023-04-06T04:21:49.094Z,2.10
2023-04-06T04:22:50.980Z,2.23
2023-04-06T04:23:54.563Z,2.07
2023-04-06T04:24:56.517Z,1.63
2023-04-06T04:25:59.792Z,1.80
2023-04-06T04:27:01.980Z,2.00
2023-04-06T04:28:05.070Z,1.77
2023-04-06T04:29:07.421Z,1.93
2023-04-06T04:30:11.157Z,1.83
2023-04-06T04:31:14.361Z,1.70
2023-04-06T04:32:17.574Z,1.80
2023-04-06T04:33:19.513Z,1.73
2023-04-06T04:34:24.973Z,2.13
2023-04-06T04:35:27.982Z,1.80
2023-04-06T04:36:30.841Z,1.77
2023-04-06T04:37:32.698Z,2.10
2023-04-06T04:38:35.567Z,1.70
2023-04-06T04:39:37.445Z,2.00
2023-04-06T04:40:40.535Z,2.77
2023-04-06T04:41:42.767Z,2.90
2023-04-06T04:42:46.108Z,2.33
2023-04-06T04:43:48.425Z,2.40
2023-04-06T04:44:51.603Z,2.27
2023-04-06T04:45:53.795Z,2.20
2023-04-06T04:46:58.846Z,2.00
2023-04-06T04:48:01.010Z,2.07
2023-04-06T04:49:04.030Z,2.27
2023-04-06T04:50:07.450Z,1.83
2023-04-06T04:51:10.684Z,1.70
2023-04-06T04:52:12.913Z,2.20
2023-04-06T04:53:16.457Z,2.20
2023-04-06T04:54:18.597Z,2.00
2023-04-06T04:55:22.787Z,2.03
2023-04-06T04:56:26.840Z,2.13
2023-04-06T04:57:29.865Z,2.43
2023-04-06T04:58:31.844Z,2.00
2023-04-06T04:59:35.106Z,1.90
2023-04-06T05:00:37.350Z,2.33
2023-04-06T05:01:53.676Z,2.03
2023-04-06T05:02:59.676Z,2.30
2023-04-06T05:04:01.945Z,1.90
2023-04-06T05:05:10.776Z,2.00
2023-04-06T05:06:14.724Z,2.07
2023-04-06T05:07:24.640Z,2.20
2023-04-06T05:08:31.370Z,2.20
2023-04-06T05:09:37.172Z,2.00
2023-04-06T05:10:48.831Z,2.57
2023-04-06T05:11:52.319Z,1.70
2023-04-06T05:13:01.307Z,1.63
2023-04-06T05:14:07.388Z,1.73
2023-04-06T05:16:04.897Z,1.90
2023-04-06T05:17:11.097Z,1.60
2023-04-06T05:18:15.984Z,1.90
2023-04-06T05:19:18.174Z,1.90
2023-04-06T05:20:24.453Z,1.80
2023-04-06T05:21:35.035Z,1.93
2023-04-06T05:22:42.247Z,1.87
2023-04-06T05:23:46.786Z,1.97
2023-04-06T05:24:52.862Z,2.03
2023-04-06T05:26:00.933Z,2.53
2023-04-06T05:27:09.962Z,2.00
2023-04-06T05:28:15.307Z,1.80
2023-04-06T05:29:47.886Z,1.90
2023-04-06T05:30:55.496Z,1.90
2023-04-06T05:32:01.791Z,2.60
2023-04-06T05:33:09.914Z,2.03
2023-04-06T05:34:14.673Z,1.77
2023-04-06T05:35:20.904Z,2.00
2023-04-06T05:36:38.212Z,2.17
2023-04-06T05:37:43.434Z,2.10
2023-04-06T05:38:51.049Z,2.40
2023-04-06T05:39:57.186Z,1.70
2023-04-06T05:41:04.758Z,2.17
2023-04-06T05:42:11.778Z,2.13
2023-04-06T05:43:14.832Z,2.17
2023-04-06T05:44:16.932Z,4.57
2023-04-06T05:45:23.498Z,2.83
2023-04-06T05:46:34.155Z,2.30
2023-04-06T05:47:47.154Z,2.57
2023-04-06T05:49:00.868Z,2.23
2023-04-06T05:50:08.544Z,1.97
2023-04-06T05:51:12.261Z,2.83
2023-04-06T05:52:17.549Z,3.23
2023-04-06T05:53:23.354Z,4.27
2023-04-06T05:54:33.137Z,3.50
2023-04-06T05:55:38.561Z,3.70
2023-04-06T05:56:44.745Z,3.10
2023-04-06T05:57:54.942Z,3.33
2023-04-06T05:59:05.747Z,2.80
2023-04-06T06:00:14.464Z,2.70
2023-04-06T06:01:18.822Z,2.90
2023-04-06T06:02:25.707Z,3.27
2023-04-06T06:03:29.822Z,2.70
2023-04-06T06:04:35.025Z,2.57
2023-04-06T06:05:39.361Z,2.20
2023-04-06T06:06:45.829Z,2.40
2023-04-06T06:07:51.257Z,2.80
2023-04-06T06:08:54.762Z,2.77
2023-04-06T06:10:07.287Z,2.50
2023-04-06T06:11:10.747Z,2.50
2023-04-06T06:12:18.242Z,2.97
2023-04-06T06:13:23.452Z,2.80
2023-04-06T06:14:30.415Z,3.27
2023-04-06T06:15:37.797Z,2.97
2023-04-06T06:16:44.746Z,3.60
2023-04-06T06:17:50.399Z,3.57
2023-04-06T06:19:01.487Z,3.80
2023-04-06T06:20:07.798Z,3.63
2023-04-06T06:21:21.705Z,3.10
2023-04-06T06:22:27.063Z,3.07
2023-04-06T06:23:31.991Z,2.60
2023-04-06T06:24:42.283Z,2.50
2023-04-06T06:25:49.150Z,2.83
2023-04-06T06:26:54.456Z,2.50
2023-04-06T06:27:59.758Z,2.50
2023-04-06T06:29:09.687Z,2.77
2023-04-06T06:30:17.226Z,2.10
2023-04-06T06:31:26.585Z,3.33
2023-04-06T06:32:39.008Z,2.73
2023-04-06T06:33:52.984Z,2.80
2023-04-06T06:35:12.334Z,2.50
2023-04-06T06:36:34.945Z,2.53
2023-04-06T06:37:47.560Z,2.73
2023-04-06T06:39:04.245Z,2.70
2023-04-06T06:40:23.656Z,2.93
2023-04-06T06:41:34.297Z,2.73
2023-04-06T06:42:38.025Z,2.33
2023-04-06T06:43:48.295Z,2.70
2023-04-06T06:44:58.301Z,2.90
2023-04-06T06:46:09.702Z,2.90
2023-04-06T06:47:18.860Z,2.57
2023-04-06T06:48:27.735Z,2.90
2023-04-06T06:49:33.052Z,2.43
2023-04-06T06:50:43.062Z,2.60
2023-04-06T06:51:59.148Z,2.97
2023-04-06T06:53:25.738Z,3.00
2023-04-06T06:54:51.421Z,2.63
2023-04-06T06:56:08.159Z,3.37
2023-04-06T06:57:53.079Z,2.77
2023-04-06T06:59:00.608Z,3.17
2023-04-06T07:00:21.282Z,2.63
2023-04-06T07:01:37.364Z,2.93
2023-04-06T07:02:56.585Z,3.47
2023-04-06T07:04:12.385Z,3.33
2023-04-06T07:05:57.515Z,3.80
2023-04-06T07:10:44.033Z,3.83
2023-04-06T07:12:30.856Z,4.20
2023-04-06T07:14:05.553Z,4.10
2023-04-06T07:15:41.913Z,4.47
2023-04-06T07:17:02.625Z,4.20
2023-04-06T07:18:48.124Z,4.53
2023-04-06T07:20:29.650Z,4.80
2023-04-06T07:37:04.390Z,4.15
2023-04-06T07:39:08.618Z,5.30
2023-04-06T07:46:37.969Z,4.53
2023-04-06T08:16:29.732Z,5.28
2023-04-06T08:17:33.168Z,4.78
2023-04-06T08:18:35.995Z,5.78
2023-04-06T08:19:38.416Z,5.57
2023-04-06T08:20:41.246Z,5.78
2023-04-06T08:21:43.541Z,5.57
2023-04-06T08:22:46.504Z,5.25
2023-04-06T08:23:48.352Z,5.43
2023-04-06T08:24:51.191Z,5.40
2023-04-06T08:25:55.110Z,5.32
2023-04-06T08:27:00.888Z,5.03
2023-04-06T08:28:03.143Z,4.88
2023-04-06T08:29:08.426Z,5.25
2023-04-06T08:30:11.934Z,5.45
2023-04-06T08:31:14.754Z,4.60
2023-04-06T08:32:18.996Z,4.88
2023-04-06T08:33:20.862Z,4.70
2023-04-06T08:34:23.843Z,4.85
2023-04-06T08:35:25.729Z,4.63
2023-04-06T08:36:28.619Z,4.75
2023-04-06T08:37:31.613Z,5.03
2023-04-06T08:38:33.424Z,5.43
2023-04-06T08:39:36.215Z,4.95
2023-04-06T08:40:38.568Z,5.10
2023-04-06T08:41:43.875Z,5.20
2023-04-06T08:42:51.650Z,4.50
2023-04-06T08:43:58.510Z,4.88
2023-04-06T08:45:01.646Z,4.80
2023-04-06T08:46:05.282Z,4.40
2023-04-06T08:47:07.153Z,4.68
2023-04-06T08:48:11.821Z,4.22
2023-04-06T08:49:13.613Z,4.07
2023-04-06T08:50:16.456Z,5.07
2023-04-06T08:51:18.834Z,4.88
2023-04-06T08:52:22.056Z,4.63
2023-04-06T08:53:24.415Z,4.72
2023-04-06T08:54:27.246Z,4.63
2023-04-06T08:55:30.320Z,4.50
2023-04-06T08:56:32.233Z,5.30
2023-04-06T08:57:35.184Z,4.53
2023-04-06T08:58:40.088Z,4.72
2023-04-06T08:59:43.385Z,4.60
2023-04-06T09:00:45.283Z,4.72
2023-04-06T09:01:48.589Z,4.50
2023-04-06T09:02:51.091Z,4.75
2023-04-06T09:03:58.528Z,4.22
2023-04-06T09:05:03.027Z,4.88
2023-04-06T09:06:05.489Z,4.88
2023-04-06T09:07:08.285Z,4.70
2023-04-06T09:08:11.166Z,4.40
2023-04-06T09:09:13.947Z,4.13
2023-04-06T09:10:16.533Z,4.47
2023-04-06T09:11:19.312Z,5.03
2023-04-06T09:12:25.435Z,4.75
2023-04-06T09:13:28.314Z,4.63
2023-04-06T09:14:39.428Z,4.32
2023-04-06T09:15:42.311Z,5.30
2023-04-06T09:16:46.304Z,4.88
2023-04-06T09:17:49.244Z,5.25
2023-04-06T09:18:52.486Z,4.35
2023-04-06T09:19:56.084Z,4.75
2023-04-06T09:21:00.492Z,4.30
2023-04-06T09:22:04.754Z,4.43
2023-04-06T09:23:07.571Z,4.90
2023-04-06T09:24:12.311Z,4.65
2023-04-06T09:25:20.673Z,4.57
2023-04-06T09:26:23.824Z,4.32
2023-04-06T09:27:32.127Z,4.50
2023-04-06T09:28:46.508Z,4.35
2023-04-06T09:29:48.290Z,4.22
2023-04-06T09:30:51.334Z,4.50
2023-04-06T09:31:54.224Z,4.88
2023-04-06T09:32:57.687Z,4.05
2023-04-06T09:34:01.631Z,3.80
2023-04-06T09:35:10.313Z,3.38
2023-04-06T09:36:14.600Z,4.65
2023-04-06T09:37:16.997Z,4.47
2023-04-06T09:38:19.852Z,5.00
2023-04-06T09:39:23.313Z,4.13
2023-04-06T09:40:26.147Z,5.13
2023-04-06T09:41:28.989Z,4.20
2023-04-06T09:42:31.839Z,4.40
2023-04-06T09:43:33.663Z,4.90
2023-04-06T09:44:36.522Z,4.30
2023-04-06T09:45:39.426Z,5.20
2023-04-06T09:46:58.043Z,4.53
2023-04-06T09:48:03.511Z,4.30
2023-04-06T09:49:05.718Z,4.25
2023-04-06T09:50:11.848Z,4.38
2023-04-06T09:51:15.950Z,4.40
2023-04-06T09:52:19.109Z,5.22
2023-04-06T09:53:22.889Z,4.80
2023-04-06T09:54:25.767Z,4.45
2023-04-06T09:55:32.836Z,4.55
2023-04-06T09:56:41.995Z,4.68
2023-04-06T09:57:49.066Z,4.97
2023-04-06T09:58:51.392Z,4.53
2023-04-06T10:00:04.557Z,5.25
2023-04-06T10:01:08.397Z,4.75
2023-04-06T10:02:18.376Z,4.85
2023-04-06T10:03:27.968Z,4.30
2023-04-06T10:04:39.255Z,4.25
2023-04-06T10:05:49.121Z,4.82
2023-04-06T10:06:53.500Z,5.07
2023-04-06T10:08:01.106Z,5.22
2023-04-06T10:09:05.424Z,5.13
2023-04-06T10:10:09.489Z,4.68
2023-04-06T10:11:12.010Z,4.97
2023-04-06T10:12:15.954Z,5.07
2023-04-06T10:13:18.927Z,5.00
2023-04-06T10:14:21.766Z,4.85
2023-04-06T10:15:23.564Z,5.20
2023-04-06T10:16:27.172Z,5.70
2023-04-06T10:17:29.169Z,5.20
2023-04-06T10:18:32.265Z,5.00
2023-04-06T10:19:44.212Z,5.40
2023-04-06T10:20:50.231Z,4.80
2023-04-06T10:21:56.377Z,4.35
2023-04-06T10:23:03.030Z,4.28
2023-04-06T10:24:11.686Z,4.43
2023-04-06T10:25:14.755Z,4.75
2023-04-06T10:26:17.771Z,3.95
2023-04-06T10:27:30.925Z,4.90
2023-04-06T10:28:35.403Z,4.75
2023-04-06T10:29:45.299Z,4.72
2023-04-06T10:30:48.506Z,4.80
2023-04-06T10:31:51.425Z,4.70
2023-04-06T10:32:53.265Z,5.18
2023-04-06T10:33:57.483Z,4.55
2023-04-06T10:35:06.727Z,5.03
2023-04-06T10:36:15.570Z,4.60
2023-04-06T10:37:21.534Z,4.60
2023-04-06T10:38:36.645Z,5.25
2023-04-06T10:39:48.980Z,4.80
2023-04-06T10:40:52.008Z,5.53
2023-04-06T10:41:53.907Z,4.82
2023-04-06T10:42:57.874Z,5.10
2023-04-06T10:44:00.465Z,5.68
2023-04-06T10:45:03.259Z,5.20
2023-04-06T10:46:07.548Z,5.70
2023-04-06T10:47:18.264Z,5.30
2023-04-06T10:48:21.439Z,5.70
2023-04-06T10:49:25.248Z,5.75
2023-04-06T10:50:31.868Z,5.25
2023-04-06T10:51:39.145Z,4.97
2023-04-06T10:52:41.899Z,5.45
2023-04-06T10:53:46.269Z,5.18
2023-04-06T10:54:50.480Z,5.15
2023-04-06T10:55:54.162Z,5.45
2023-04-06T10:56:57.108Z,5.75
2023-04-06T10:58:00.054Z,4.90
2023-04-06T10:59:02.903Z,4.75
2023-04-06T11:00:06.007Z,5.55
2023-04-06T11:01:08.844Z,5.40
2023-04-06T11:02:21.510Z,5.78
2023-04-06T11:03:24.304Z,5.45
2023-04-06T11:04:27.342Z,5.38
2023-04-06T11:05:29.194Z,5.13
2023-04-06T11:06:33.500Z,5.30
2023-04-06T11:07:36.796Z,5.10
2023-04-06T11:08:40.933Z,5.43
2023-04-06T11:09:46.820Z,5.28
2023-04-06T11:10:53.358Z,5.47
2023-04-06T11:11:58.263Z,5.03
2023-04-06T11:13:01.065Z,5.80
2023-04-06T11:14:04.094Z,5.53
2023-04-06T11:15:08.029Z,5.25
2023-04-06T11:16:15.445Z,5.30
2023-04-06T11:17:18.285Z,5.55
2023-04-06T11:18:21.587Z,5.63
2023-04-06T11:19:24.481Z,6.07
2023-04-06T11:20:26.370Z,6.40
2023-04-06T11:21:37.580Z,5.57
2023-04-06T11:22:52.219Z,5.53
2023-04-06T11:23:54.026Z,5.65
2023-04-06T11:25:06.973Z,6.30
2023-04-06T11:26:12.917Z,5.32
2023-04-06T11:27:16.879Z,6.20
2023-04-06T11:28:18.971Z,5.60
2023-04-06T11:29:22.908Z,5.47
2023-04-06T11:30:24.733Z,5.22
2023-04-06T11:31:27.972Z,5.40
2023-04-06T11:32:30.931Z,5.63
2023-04-06T11:33:36.610Z,6.32
2023-04-06T11:34:42.007Z,5.50
2023-04-06T11:35:44.917Z,5.18
2023-04-06T11:36:48.187Z,5.68
2023-04-06T11:37:52.837Z,6.18
2023-04-06T11:38:54.640Z,5.40
2023-04-06T11:39:58.133Z,5.70
2023-04-06T11:41:01.137Z,5.93
2023-04-06T11:42:04.974Z,6.50
2023-04-06T11:43:13.305Z,5.50
2023-04-06T11:44:16.206Z,5.75
2023-04-06T11:45:18.973Z,5.95
2023-04-06T11:46:20.827Z,5.30
2023-04-06T11:47:30.345Z,5.30
2023-04-06T11:48:32.557Z,4.30
2023-04-06T11:49:38.785Z,5.40
2023-04-06T11:50:40.764Z,5.47
2023-04-06T11:51:43.534Z,5.30
2023-04-06T11:52:46.536Z,5.60
2023-04-06T11:53:49.718Z,5.57
2023-04-06T11:54:53.552Z,5.57
2023-04-06T11:55:56.386Z,5.32
2023-04-06T11:56:58.312Z,4.93
2023-04-06T11:58:01.325Z,5.38
2023-04-06T11:59:04.226Z,5.43
2023-04-06T12:00:07.407Z,4.60
2023-04-06T12:01:10.214Z,5.10
2023-04-06T12:02:13.150Z,5.75
2023-04-06T12:03:16.571Z,6.55
2023-04-06T12:04:19.550Z,6.25
2023-04-06T12:05:22.442Z,6.85
2023-04-06T12:06:26.562Z,6.78
2023-04-06T12:07:30.602Z,5.22
2023-04-06T12:08:32.482Z,5.00
2023-04-06T12:09:37.622Z,4.75
2023-04-06T12:10:39.512Z,5.45
2023-04-06T12:11:42.980Z,4.80
2023-04-06T12:12:44.931Z,4.38
2023-04-06T12:13:47.786Z,4.70
2023-04-06T12:14:49.578Z,4.95
2023-04-06T12:15:52.615Z,5.40
2023-04-06T12:16:54.500Z,4.63
2023-04-06T12:17:57.434Z,4.60
2023-04-06T12:19:01.044Z,4.25
2023-04-06T12:20:09.428Z,4.47
2023-04-06T12:21:20.839Z,4.40
2023-04-06T12:22:23.776Z,4.60
2023-04-06T12:23:25.983Z,4.85
2023-04-06T12:24:29.642Z,4.97
2023-04-06T12:25:32.935Z,4.68
2023-04-06T12:26:36.832Z,4.10
2023-04-06T12:27:39.691Z,4.07
2023-04-06T12:28:42.770Z,4.25
2023-04-06T12:29:45.648Z,4.38
2023-04-06T12:30:48.478Z,4.70
2023-04-06T12:31:52.129Z,4.57
2023-04-06T12:32:54.034Z,5.32
2023-04-06T12:33:56.954Z,4.45
2023-04-06T12:34:59.810Z,4.53
2023-04-06T12:36:02.540Z,4.93
2023-04-06T12:37:04.329Z,4.40
2023-04-06T12:38:07.134Z,4.50
2023-04-06T12:39:10.170Z,4.82
2023-04-06T12:40:13.272Z,5.80
2023-04-06T12:41:16.581Z,5.05
2023-04-06T12:42:19.477Z,5.05
2023-04-06T12:43:21.473Z,5.25
2023-04-06T12:44:25.541Z,5.22
2023-04-06T12:45:29.571Z,4.88
2023-04-06T12:46:32.769Z,4.50
2023-04-06T12:47:34.685Z,3.53
2023-04-06T12:48:37.598Z,3.95
2023-04-06T12:49:40.655Z,4.18
2023-04-06T12:50:43.421Z,3.90
2023-04-06T12:51:46.347Z,4.57
2023-04-06T12:52:49.569Z,4.25
2023-04-06T12:53:51.407Z,4.72
2023-04-06T12:54:54.214Z,4.78
2023-04-06T12:55:56.576Z,4.75
2023-04-06T12:57:01.885Z,4.40
2023-04-06T12:58:03.974Z,5.03
2023-04-06T12:59:07.336Z,4.57
2023-04-06T13:00:10.936Z,5.03
2023-04-06T13:01:14.850Z,4.72
2023-04-06T13:02:18.252Z,4.88
2023-04-06T13:03:20.297Z,5.05
2023-04-06T13:04:23.178Z,4.60
2023-04-06T13:05:26.419Z,4.80
2023-04-06T13:06:30.223Z,5.05
2023-04-06T13:07:32.051Z,5.28
2023-04-06T13:08:34.850Z,4.53
2023-04-06T13:09:37.587Z,3.72
2023-04-06T13:10:39.382Z,4.78
2023-04-06T13:11:43.909Z,4.57
2023-04-06T13:12:48.193Z,4.40
2023-04-06T13:13:50.253Z,4.15
2023-04-06T13:14:53.577Z,4.53
2023-04-06T13:15:56.564Z,4.13
2023-04-06T13:16:59.678Z,4.18
2023-04-06T13:18:02.492Z,3.80
2023-04-06T13:19:05.323Z,3.95
2023-04-06T13:20:09.338Z,3.90
2023-04-06T13:21:16.959Z,4.25
2023-04-06T13:22:18.980Z,4.72
2023-04-06T13:23:21.778Z,4.22
2023-04-06T13:24:25.052Z,4.18
2023-04-06T13:25:33.529Z,4.03
2023-04-06T13:26:36.775Z,4.13
2023-04-06T13:27:40.530Z,4.00
2023-04-06T13:28:45.698Z,4.13
2023-04-06T13:29:47.904Z,3.92
2023-04-06T13:30:50.893Z,3.97
2023-04-06T13:31:53.747Z,4.03
2023-04-06T13:32:55.749Z,4.13
2023-04-06T13:33:58.538Z,4.13
2023-04-06T13:35:01.780Z,4.18
2023-04-06T13:36:04.309Z,4.00
2023-04-06T13:37:07.317Z,4.68
2023-04-06T13:38:10.327Z,4.63
2023-04-06T13:39:12.172Z,4.30
2023-04-06T13:40:18.814Z,4.63
2023-04-06T13:41:22.930Z,4.85
2023-04-06T13:42:25.944Z,4.50
2023-04-06T13:43:27.994Z,4.85
2023-04-06T13:44:32.236Z,4.70
2023-04-06T13:45:34.136Z,4.50
2023-04-06T13:46:36.978Z,4.35
2023-04-06T13:47:39.829Z,4.55
2023-04-06T13:48:41.983Z,4.38
2023-04-06T13:49:44.975Z,4.05
2023-04-06T13:50:46.886Z,4.85
2023-04-06T13:51:49.700Z,4.32
2023-04-06T13:52:52.534Z,3.90
2023-04-06T13:53:54.722Z,4.43
2023-04-06T13:54:57.476Z,3.53
2023-04-06T13:55:59.197Z,3.88
2023-04-06T13:57:01.937Z,4.70
2023-04-06T13:58:04.873Z,4.88
2023-04-06T13:59:06.952Z,4.25
2023-04-06T14:00:13.702Z,4.20
2023-04-06T14:01:16.643Z,4.35
2023-04-06T14:02:20.792Z,4.07
2023-04-06T14:03:23.906Z,4.30
2023-04-06T14:04:26.738Z,4.47
2023-04-06T14:05:32.432Z,4.97
2023-04-06T14:06:35.194Z,4.70
2023-04-06T14:07:38.462Z,4.78
2023-04-06T14:08:42.079Z,4.90
2023-04-06T14:09:44.755Z,4.47
2023-04-06T14:10:46.455Z,4.38
2023-04-06T14:11:49.089Z,4.65
2023-04-06T14:12:51.328Z,5.20
2023-04-06T14:13:55.769Z,4.80
2023-04-06T14:14:59.094Z,4.97
2023-04-06T14:16:03.245Z,4.15
2023-04-06T14:17:05.073Z,4.18
2023-04-06T14:18:07.842Z,4.97
2023-04-06T14:19:09.521Z,4.70
2023-04-06T14:20:15.719Z,4.75
2023-04-06T14:21:19.521Z,4.70
2023-04-06T14:22:22.258Z,4.38
2023-04-06T14:23:26.848Z,4.40
2023-04-06T14:24:29.505Z,4.43
2023-04-06T14:25:32.400Z,4.22
2023-04-06T14:26:35.662Z,4.65
2023-04-06T14:27:38.304Z,4.45
2023-04-06T14:28:41.107Z,3.75
2023-04-06T14:29:42.796Z,4.25
2023-04-06T14:30:45.610Z,4.65
2023-04-06T14:31:50.116Z,3.95
2023-04-06T14:32:51.868Z,4.20
2023-04-06T14:33:54.769Z,4.38
2023-04-06T14:34:56.765Z,4.35
2023-04-06T14:35:59.432Z,3.92
2023-04-06T14:37:01.200Z,4.78
2023-04-06T14:38:03.937Z,3.95
2023-04-06T14:39:05.980Z,4.75
2023-04-06T14:40:10.033Z,4.40
2023-04-06T14:41:17.208Z,4.30
2023-04-06T14:42:19.936Z,4.63
2023-04-06T14:43:22.710Z,4.60
2023-04-06T14:44:24.386Z,4.50
2023-04-06T14:45:27.079Z,4.40
2023-04-06T14:46:28.823Z,3.90
2023-04-06T14:47:33.950Z,4.85
2023-04-06T14:48:36.099Z,4.57
2023-04-06T14:49:38.946Z,4.10
2023-04-06T14:50:41.040Z,4.15
2023-04-06T14:51:43.740Z,4.13
2023-04-06T14:52:47.245Z,4.13
2023-04-06T14:53:50.022Z,4.07
2023-04-06T14:54:52.672Z,4.20
2023-04-06T14:55:54.937Z,3.97
2023-04-06T14:56:57.795Z,3.97
2023-04-06T14:57:59.482Z,4.07
2023-04-06T14:59:02.827Z,4.38
2023-04-06T15:00:08.834Z,4.55
2023-04-06T15:01:10.546Z,4.85
2023-04-06T15:02:13.388Z,4.53
2023-04-06T15:03:17.174Z,4.60
2023-04-06T15:04:20.141Z,5.10
2023-04-06T15:05:22.942Z,4.40
2023-04-06T15:06:24.613Z,4.07
2023-04-06T15:07:27.283Z,4.72
2023-04-06T15:08:29.917Z,4.25
2023-04-06T15:09:31.811Z,4.75
2023-04-06T15:10:34.873Z,4.65
2023-04-06T15:11:37.569Z,4.20
2023-04-06T15:12:39.286Z,4.55
2023-04-06T15:13:42.914Z,4.50
2023-04-06T15:14:45.762Z,4.53